Time;durP1;ratioP1;P1;durP2;ratioP2;P2;SDS_P1;SDS_P2;PMS_P1;PMS_P2;Temp;Humidity;BMP_temperature;BMP_pressure;BME280_temperature;BME280_humidity;BME280_pressure;Samples;Min_cycle;Max_cycle;Signal;HPM_P1;HPM_P2
2022/07/31 00:01:12;;;;;;;7.65;3.40;;;;;;;;;;5012110;28;20041;-77
2022/07/31 00:03:38;;;;;;;7.75;3.55;;;;;;;;;;5016743;28;20060;-76
2022/07/31 00:06:04;;;;;;;12.13;3.78;;;;;;;;;;5015474;28;20056;-78
2022/07/31 00:08:30;;;;;;;8.27;3.88;;;;;;;;;;5012929;28;20406;-76
2022/07/31 00:10:56;;;;;;;11.52;3.65;;;;;;;;;;5016888;28;20100;-79
2022/07/31 00:13:22;;;;;;;10.73;3.80;;;;;;;;;;5009101;28;20065;-75
2022/07/31 00:15:48;;;;;;;7.70;3.78;;;;;;;;;;5011223;28;20158;-75
2022/07/31 00:18:14;;;;;;;10.75;3.50;;;;;;;;;;5009186;28;20049;-75
2022/07/31 00:20:40;;;;;;;8.52;3.20;;;;;;;;;;5025955;28;20487;-74
2022/07/31 00:23:06;;;;;;;12.85;5.05;;;;;;;;;;5008955;28;20044;-75
2022/07/31 00:25:32;;;;;;;22.50;9.00;;;;;;;;;;5017050;28;20510;-76
2022/07/31 00:27:58;;;;;;;15.50;8.07;;;;;;;;;;5022975;28;20095;-76
2022/07/31 00:30:24;;;;;;;18.35;6.85;;;;;;;;;;5029804;28;20132;-75
2022/07/31 00:32:50;;;;;;;22.55;6.10;;;;;;;;;;5020515;28;20065;-76
2022/07/31 00:35:16;;;;;;;14.27;6.38;;;;;;;;;;5021013;28;20068;-76
2022/07/31 00:37:43;;;;;;;13.55;5.90;;;;;;;;;;5020615;28;20072;-76
2022/07/31 00:40:12;;;;;;;19.38;7.10;;;;;;;;;;5023042;28;20084;-76
2022/07/31 00:42:38;;;;;;;14.60;7.72;;;;;;;;;;5023201;28;20046;-75
2022/07/31 00:45:05;;;;;;;24.88;9.80;;;;;;;;;;5020866;28;20045;-74
2022/07/31 00:47:31;;;;;;;27.35;9.45;;;;;;;;;;5020282;28;20083;-75
2022/07/31 00:49:57;;;;;;;17.17;6.60;;;;;;;;;;5023822;28;20791;-76
2022/07/31 00:52:24;;;;;;;15.20;4.85;;;;;;;;;;5026123;28;20124;-75
2022/07/31 00:54:49;;;;;;;13.23;4.60;;;;;;;;;;5022611;28;20053;-77
2022/07/31 00:57:15;;;;;;;12.70;4.10;;;;;;;;;;5024723;28;20117;-76
2022/07/31 00:59:42;;;;;;;10.85;4.10;;;;;;;;;;5019577;28;20061;-76
2022/07/31 01:02:08;;;;;;;8.98;3.65;;;;;;;;;;5017269;28;20479;-77
2022/07/31 01:04:35;;;;;;;9.50;3.78;;;;;;;;;;5021780;28;20062;-77
2022/07/31 01:07:01;;;;;;;8.00;3.55;;;;;;;;;;5021002;28;20384;-75
2022/07/31 01:09:27;;;;;;;8.65;3.90;;;;;;;;;;5024978;28;20423;-75
2022/07/31 01:12:19;;;;;;;6.53;3.22;;;;;;;;;;5023971;28;20057;-78
2022/07/31 01:14:48;;;;;;;5.80;3.20;;;;;;;;;;5019052;28;20798;-77
2022/07/31 01:17:16;;;;;;;11.35;3.95;;;;;;;;;;5022969;28;20041;-76
2022/07/31 01:19:44;;;;;;;10.82;3.63;;;;;;;;;;5023544;28;20045;-75
2022/07/31 01:22:29;;;;;;;8.45;3.38;;;;;;;;;;5024611;28;20071;-77
2022/07/31 01:25:04;;;;;;;8.98;3.40;;;;;;;;;;5038698;28;20106;-77
2022/07/31 01:28:07;;;;;;;7.57;3.40;;;;;;;;;;5018348;28;20045;-74
2022/07/31 01:30:44;;;;;;;9.00;3.47;;;;;;;;;;5015200;28;20064;-76
2022/07/31 01:33:14;;;;;;;11.75;3.83;;;;;;;;;;5016779;28;20128;-76
2022/07/31 01:35:44;;;;;;;7.63;3.38;;;;;;;;;;5019671;28;20041;-76
2022/07/31 01:38:19;;;;;;;8.32;3.42;;;;;;;;;;5016535;28;20549;-76
2022/07/31 01:40:49;;;;;;;5.20;3.30;;;;;;;;;;5021228;28;20134;-76
2022/07/31 01:43:24;;;;;;;6.65;3.22;;;;;;;;;;5021934;28;20041;-75
2022/07/31 01:45:54;;;;;;;11.38;3.92;;;;;;;;;;5020027;28;20037;-74
2022/07/31 01:48:21;;;;;;;12.85;3.90;;;;;;;;;;5021210;28;20099;-76
2022/07/31 01:50:50;;;;;;;9.52;4.45;;;;;;;;;;5020449;28;20103;-75
2022/07/31 01:53:21;;;;;;;10.65;4.25;;;;;;;;;;5053514;28;20046;-75
2022/07/31 01:55:50;;;;;;;7.70;4.53;;;;;;;;;;5021756;28;20068;-76
2022/07/31 01:58:18;;;;;;;10.20;4.13;;;;;;;;;;5022786;28;20048;-75
2022/07/31 02:00:46;;;;;;;9.15;4.20;;;;;;;;;;5021130;28;20037;-76
2022/07/31 02:03:15;;;;;;;13.68;4.55;;;;;;;;;;5021484;28;20060;-75
2022/07/31 02:05:43;;;;;;;16.40;4.55;;;;;;;;;;5016712;28;20050;-74
2022/07/31 02:08:11;;;;;;;11.38;4.30;;;;;;;;;;5019746;28;20057;-76
2022/07/31 02:10:38;;;;;;;14.57;4.50;;;;;;;;;;5011557;28;20042;-77
2022/07/31 02:13:05;;;;;;;12.77;4.53;;;;;;;;;;5015797;28;20054;-76
2022/07/31 02:15:33;;;;;;;11.60;4.15;;;;;;;;;;5023639;28;20050;-75
2022/07/31 02:18:00;;;;;;;9.55;4.05;;;;;;;;;;5015430;28;20514;-74
2022/07/31 02:20:29;;;;;;;7.10;4.03;;;;;;;;;;5024062;28;20050;-76
2022/07/31 02:22:57;;;;;;;11.27;4.03;;;;;;;;;;5017423;28;20125;-76
2022/07/31 02:25:24;;;;;;;9.80;4.28;;;;;;;;;;5014484;28;20445;-74
2022/07/31 02:27:51;;;;;;;9.40;4.15;;;;;;;;;;5016941;28;20053;-74
2022/07/31 02:30:17;;;;;;;11.27;4.30;;;;;;;;;;5011552;28;20464;-74
2022/07/31 02:32:46;;;;;;;8.90;4.38;;;;;;;;;;5018845;28;20052;-73
2022/07/31 02:35:14;;;;;;;8.50;4.45;;;;;;;;;;5017035;28;20042;-77
2022/07/31 02:37:41;;;;;;;10.18;4.10;;;;;;;;;;5023308;28;20124;-76
2022/07/31 02:40:09;;;;;;;14.18;5.10;;;;;;;;;;5025852;28;20453;-74
2022/07/31 02:42:36;;;;;;;10.88;4.50;;;;;;;;;;5018599;28;20046;-74
2022/07/31 02:45:03;;;;;;;14.88;4.80;;;;;;;;;;5018623;28;20395;-76
2022/07/31 02:47:29;;;;;;;11.65;4.90;;;;;;;;;;5017821;28;20128;-76
2022/07/31 02:49:56;;;;;;;10.38;4.78;;;;;;;;;;5020126;28;20115;-75
2022/07/31 02:52:23;;;;;;;13.63;5.20;;;;;;;;;;5015592;28;20038;-74
2022/07/31 02:54:51;;;;;;;11.68;4.75;;;;;;;;;;5021241;28;20053;-76
2022/07/31 02:57:17;;;;;;;13.02;5.18;;;;;;;;;;5015054;28;20073;-76
2022/07/31 02:59:43;;;;;;;9.57;5.00;;;;;;;;;;5017525;28;20096;-77
2022/07/31 03:02:09;;;;;;;11.27;4.50;;;;;;;;;;5013097;28;20523;-78
2022/07/31 03:04:35;;;;;;;10.55;4.68;;;;;;;;;;5024477;28;20058;-75
2022/07/31 03:07:02;;;;;;;9.70;4.55;;;;;;;;;;5013221;28;20052;-76
2022/07/31 03:09:29;;;;;;;10.60;4.53;;;;;;;;;;5012145;28;20132;-76
2022/07/31 03:11:56;;;;;;;9.55;4.55;;;;;;;;;;5021458;28;20065;-77
2022/07/31 03:14:24;;;;;;;8.38;4.50;;;;;;;;;;5021631;28;20116;-76
2022/07/31 03:16:51;;;;;;;10.38;4.53;;;;;;;;;;5016724;28;20046;-76
2022/07/31 03:19:19;;;;;;;10.65;4.47;;;;;;;;;;5014199;28;20092;-74
2022/07/31 03:21:46;;;;;;;12.10;4.88;;;;;;;;;;5018993;28;20052;-75
2022/07/31 03:24:12;;;;;;;15.52;4.22;;;;;;;;;;5011690;28;20044;-75
2022/07/31 03:26:38;;;;;;;12.93;4.13;;;;;;;;;;5017963;28;20644;-75
2022/07/31 03:29:04;;;;;;;13.50;4.45;;;;;;;;;;5021000;28;20050;-77
2022/07/31 03:31:30;;;;;;;12.30;4.50;;;;;;;;;;5019132;28;20139;-74
2022/07/31 03:33:56;;;;;;;10.27;4.15;;;;;;;;;;5021590;28;20072;-77
2022/07/31 03:36:22;;;;;;;12.05;4.68;;;;;;;;;;5012572;28;20042;-75
2022/07/31 03:38:48;;;;;;;9.38;4.57;;;;;;;;;;5018337;28;20049;-78
2022/07/31 03:41:14;;;;;;;11.43;4.60;;;;;;;;;;5009699;28;20051;-75
2022/07/31 03:43:42;;;;;;;10.02;4.20;;;;;;;;;;5011493;28;20049;-78
2022/07/31 03:46:09;;;;;;;10.80;3.90;;;;;;;;;;5012895;28;20052;-75
2022/07/31 03:48:35;;;;;;;10.20;4.28;;;;;;;;;;5017150;28;20077;-77
2022/07/31 03:51:01;;;;;;;8.90;4.03;;;;;;;;;;5014586;28;20711;-75
2022/07/31 03:53:28;;;;;;;11.88;4.47;;;;;;;;;;5016387;28;20404;-77
2022/07/31 03:55:55;;;;;;;8.15;3.72;;;;;;;;;;5017660;28;20100;-75
2022/07/31 03:58:22;;;;;;;10.60;4.35;;;;;;;;;;5013860;28;20054;-78
2022/07/31 04:00:49;;;;;;;8.18;3.92;;;;;;;;;;5015330;28;20091;-77
2022/07/31 04:03:15;;;;;;;11.75;4.40;;;;;;;;;;5037883;28;20127;-77
2022/07/31 04:05:41;;;;;;;9.98;4.07;;;;;;;;;;5014290;28;20466;-75
2022/07/31 04:08:08;;;;;;;10.90;3.88;;;;;;;;;;5011883;28;20407;-77
2022/07/31 04:10:35;;;;;;;8.85;3.72;;;;;;;;;;5017783;28;20072;-78
2022/07/31 04:13:03;;;;;;;8.23;4.38;;;;;;;;;;5018582;28;20067;-76
2022/07/31 04:15:29;;;;;;;9.43;4.45;;;;;;;;;;5013747;28;20072;-75
2022/07/31 04:17:55;;;;;;;14.98;4.45;;;;;;;;;;5017263;28;20478;-76
2022/07/31 04:20:21;;;;;;;11.80;4.53;;;;;;;;;;5013630;28;20621;-77
2022/07/31 04:22:47;;;;;;;7.55;4.15;;;;;;;;;;5014228;28;20038;-77
2022/07/31 04:25:13;;;;;;;11.50;4.03;;;;;;;;;;5056056;28;20041;-76
2022/07/31 04:27:39;;;;;;;11.20;4.20;;;;;;;;;;5016260;28;20052;-77
2022/07/31 04:30:07;;;;;;;9.23;4.50;;;;;;;;;;5016816;28;20521;-77
2022/07/31 04:32:34;;;;;;;15.32;4.82;;;;;;;;;;5015756;28;20038;-76
2022/07/31 04:35:01;;;;;;;12.48;4.28;;;;;;;;;;5016925;28;20077;-77
2022/07/31 04:37:27;;;;;;;10.25;4.50;;;;;;;;;;5013204;28;20041;-77
2022/07/31 04:39:54;;;;;;;9.00;4.47;;;;;;;;;;5020965;28;20041;-76
2022/07/31 04:42:20;;;;;;;9.02;4.50;;;;;;;;;;5017137;28;20113;-77
2022/07/31 04:44:45;;;;;;;11.45;4.35;;;;;;;;;;5018396;28;20141;-76
2022/07/31 04:47:12;;;;;;;13.45;4.70;;;;;;;;;;5014314;28;20038;-75
2022/07/31 04:49:38;;;;;;;15.55;4.80;;;;;;;;;;5012877;28;20431;-76
2022/07/31 04:52:05;;;;;;;10.93;4.57;;;;;;;;;;5022199;28;20053;-76
2022/07/31 04:54:31;;;;;;;13.15;4.60;;;;;;;;;;5023404;28;20042;-78
2022/07/31 04:56:58;;;;;;;16.20;4.68;;;;;;;;;;5024648;28;20060;-78
2022/07/31 04:59:24;;;;;;;11.63;4.28;;;;;;;;;;5020235;28;20042;-74
2022/07/31 05:01:50;;;;;;;11.05;4.72;;;;;;;;;;5020130;28;20049;-75
2022/07/31 05:04:17;;;;;;;8.52;4.50;;;;;;;;;;5024286;28;20216;-77
2022/07/31 05:06:47;;;;;;;11.90;4.22;;;;;;;;;;5029164;28;20053;-78
2022/07/31 05:09:16;;;;;;;9.45;4.57;;;;;;;;;;5028673;28;20064;-74
2022/07/31 05:11:42;;;;;;;14.70;4.70;;;;;;;;;;5027614;28;20076;-74
2022/07/31 05:14:10;;;;;;;8.18;4.22;;;;;;;;;;5027863;28;20045;-74
2022/07/31 05:16:36;;;;;;;8.02;4.13;;;;;;;;;;5028204;28;20056;-75
2022/07/31 05:19:03;;;;;;;11.68;4.75;;;;;;;;;;5028288;28;20131;-75
2022/07/31 05:21:30;;;;;;;14.05;4.50;;;;;;;;;;5025039;28;20046;-76
2022/07/31 05:23:57;;;;;;;15.05;4.90;;;;;;;;;;5027577;28;20061;-74
2022/07/31 05:26:23;;;;;;;10.52;4.93;;;;;;;;;;5029338;28;20049;-74
2022/07/31 05:28:50;;;;;;;9.63;4.53;;;;;;;;;;5028833;28;20068;-76
2022/07/31 05:31:18;;;;;;;11.00;4.88;;;;;;;;;;5028569;28;20049;-76
2022/07/31 05:33:46;;;;;;;8.38;4.70;;;;;;;;;;5025863;28;20053;-76
2022/07/31 05:36:12;;;;;;;10.18;4.90;;;;;;;;;;5024136;28;20098;-77
2022/07/31 05:38:38;;;;;;;13.65;4.78;;;;;;;;;;5024078;28;20060;-74
2022/07/31 05:41:05;;;;;;;10.85;5.00;;;;;;;;;;5027084;28;20045;-76
2022/07/31 05:43:31;;;;;;;10.13;4.25;;;;;;;;;;5026749;28;20064;-74
2022/07/31 05:45:56;;;;;;;13.35;4.97;;;;;;;;;;5024334;28;20614;-74
2022/07/31 05:48:23;;;;;;;13.57;4.55;;;;;;;;;;5019132;28;20049;-75
2022/07/31 05:50:50;;;;;;;12.30;4.60;;;;;;;;;;5016216;28;20095;-76
2022/07/31 05:53:16;;;;;;;14.68;4.75;;;;;;;;;;5019120;28;20041;-78
2022/07/31 05:55:49;;;;;;;13.82;4.60;;;;;;;;;;5020369;28;20506;-78
2022/07/31 05:58:17;;;;;;;9.60;4.40;;;;;;;;;;5016851;28;20092;-76
2022/07/31 06:00:45;;;;;;;8.88;4.57;;;;;;;;;;5015904;28;21486;-75
2022/07/31 06:03:11;;;;;;;8.73;4.50;;;;;;;;;;5020122;28;20138;-76
2022/07/31 06:05:41;;;;;;;9.80;4.55;;;;;;;;;;5017927;28;20061;-77
2022/07/31 06:08:08;;;;;;;12.75;4.65;;;;;;;;;;5019667;28;21201;-78
2022/07/31 06:10:36;;;;;;;10.35;4.70;;;;;;;;;;5019771;28;20042;-76
2022/07/31 06:13:02;;;;;;;12.45;4.28;;;;;;;;;;5019081;28;20143;-75
2022/07/31 06:15:29;;;;;;;10.95;4.60;;;;;;;;;;5050966;28;20064;-76
2022/07/31 06:17:54;;;;;;;16.30;5.00;;;;;;;;;;5016262;28;20114;-77
2022/07/31 06:20:20;;;;;;;12.18;5.53;;;;;;;;;;5025063;28;20034;-77
2022/07/31 06:22:46;;;;;;;10.18;5.30;;;;;;;;;;5032298;28;20041;-79
2022/07/31 06:25:12;;;;;;;15.52;6.57;;;;;;;;;;5039520;28;20065;-78
2022/07/31 06:27:38;;;;;;;16.85;7.22;;;;;;;;;;5016212;28;20057;-77
2022/07/31 06:30:05;;;;;;;15.05;6.85;;;;;;;;;;5021753;28;20406;-78
2022/07/31 06:32:32;;;;;;;13.07;6.93;;;;;;;;;;5028486;28;20140;-77
2022/07/31 06:34:58;;;;;;;12.60;7.10;;;;;;;;;;5025558;28;20042;-80
2022/07/31 06:37:24;;;;;;;16.27;7.20;;;;;;;;;;5036025;28;20050;-77
2022/07/31 06:39:51;;;;;;;13.40;6.68;;;;;;;;;;5024417;28;20125;-77
2022/07/31 06:42:18;;;;;;;11.43;6.28;;;;;;;;;;5022396;28;20125;-78
2022/07/31 06:44:44;;;;;;;16.27;6.70;;;;;;;;;;5017779;28;20128;-78
2022/07/31 06:47:11;;;;;;;14.13;7.03;;;;;;;;;;5019357;28;20062;-76
2022/07/31 06:49:36;;;;;;;14.73;6.22;;;;;;;;;;5051649;28;20042;-79
2022/07/31 06:52:03;;;;;;;9.65;6.05;;;;;;;;;;5017445;28;20455;-78
2022/07/31 06:54:28;;;;;;;11.88;5.63;;;;;;;;;;5022959;28;20052;-77
2022/07/31 06:56:54;;;;;;;12.13;5.25;;;;;;;;;;5025757;28;20072;-79
2022/07/31 06:59:20;;;;;;;10.32;6.00;;;;;;;;;;5028870;28;20050;-78
2022/07/31 07:01:46;;;;;;;13.15;5.10;;;;;;;;;;5022616;28;20049;-77
2022/07/31 07:04:12;;;;;;;10.15;5.43;;;;;;;;;;5014458;28;20050;-79
2022/07/31 07:06:38;;;;;;;8.85;4.60;;;;;;;;;;5020632;28;20564;-77
2022/07/31 07:09:04;;;;;;;7.55;4.85;;;;;;;;;;5022453;28;20053;-79
2022/07/31 07:11:30;;;;;;;13.65;4.90;;;;;;;;;;5023341;28;20132;-78
2022/07/31 07:13:56;;;;;;;13.20;5.50;;;;;;;;;;5027614;28;20045;-78
2022/07/31 07:16:22;;;;;;;16.40;5.25;;;;;;;;;;5021596;28;20132;-80
2022/07/31 07:18:48;;;;;;;8.75;4.35;;;;;;;;;;5030075;28;20091;-76
2022/07/31 07:21:14;;;;;;;14.00;5.22;;;;;;;;;;5015976;28;20042;-79
2022/07/31 07:23:40;;;;;;;10.75;4.78;;;;;;;;;;5022738;28;20042;-82
2022/07/31 07:26:06;;;;;;;10.32;3.97;;;;;;;;;;5035059;28;20045;-78
2022/07/31 07:28:33;;;;;;;9.93;4.57;;;;;;;;;;5030264;28;20058;-76
2022/07/31 07:30:59;;;;;;;9.90;4.47;;;;;;;;;;5019360;28;20127;-77
2022/07/31 07:33:26;;;;;;;9.00;4.10;;;;;;;;;;5012885;28;20514;-78
2022/07/31 07:35:51;;;;;;;15.27;4.50;;;;;;;;;;5018180;28;20049;-80
2022/07/31 07:38:17;;;;;;;11.07;3.78;;;;;;;;;;5026509;28;20726;-79
2022/07/31 07:40:43;;;;;;;12.00;4.80;;;;;;;;;;5024489;28;20064;-79
2022/07/31 07:43:09;;;;;;;9.20;3.85;;;;;;;;;;5017670;28;20495;-80
2022/07/31 07:45:35;;;;;;;9.20;4.07;;;;;;;;;;5020204;28;20048;-81
2022/07/31 07:48:00;;;;;;;13.75;4.05;;;;;;;;;;5027027;28;20054;-78
2022/07/31 07:50:27;;;;;;;13.52;4.30;;;;;;;;;;5014740;28;20093;-78
2022/07/31 07:52:52;;;;;;;11.80;4.25;;;;;;;;;;5016084;28;20042;-79
2022/07/31 07:55:18;;;;;;;13.50;4.82;;;;;;;;;;5016082;28;20113;-76
2022/07/31 07:57:44;;;;;;;15.50;4.68;;;;;;;;;;5024733;28;20408;-79
2022/07/31 08:00:11;;;;;;;13.00;4.80;;;;;;;;;;5018749;28;20046;-79
2022/07/31 08:02:37;;;;;;;8.43;4.03;;;;;;;;;;5021449;28;20042;-79
2022/07/31 08:05:05;;;;;;;11.55;4.70;;;;;;;;;;5013484;28;20508;-78
2022/07/31 08:07:35;;;;;;;14.70;4.38;;;;;;;;;;5023777;28;20072;-76
2022/07/31 08:10:01;;;;;;;10.63;4.20;;;;;;;;;;5016209;28;20068;-76
2022/07/31 08:12:27;;;;;;;10.75;4.53;;;;;;;;;;5013799;28;20045;-80
2022/07/31 08:14:53;;;;;;;12.55;5.00;;;;;;;;;;5016334;28;20042;-76
2022/07/31 08:17:19;;;;;;;12.55;5.20;;;;;;;;;;5027582;28;20049;-78
2022/07/31 08:19:45;;;;;;;10.40;4.38;;;;;;;;;;5020535;28;20049;-79
2022/07/31 08:22:12;;;;;;;14.77;5.18;;;;;;;;;;5024762;28;20052;-75
2022/07/31 08:24:38;;;;;;;13.27;5.18;;;;;;;;;;5014326;28;20072;-76
2022/07/31 08:29:49;;;;;;;12.70;4.43;;;;;;;;;;5015920;28;20097;-79
2022/07/31 08:32:16;;;;;;;13.73;4.57;;;;;;;;;;5021978;28;20083;-78
2022/07/31 08:34:42;;;;;;;11.45;4.60;;;;;;;;;;5016964;28;20136;-78
2022/07/31 08:37:08;;;;;;;17.17;4.18;;;;;;;;;;5021561;28;20575;-76
2022/07/31 08:39:35;;;;;;;10.10;3.80;;;;;;;;;;5009823;28;20048;-78
2022/07/31 08:42:09;;;;;;;8.73;3.85;;;;;;;;;;5023032;28;20065;-75
2022/07/31 08:44:40;;;;;;;10.57;4.22;;;;;;;;;;5031217;28;20105;-79
2022/07/31 08:47:11;;;;;;;11.10;4.32;;;;;;;;;;5023483;28;20604;-76
2022/07/31 08:49:43;;;;;;;12.80;4.80;;;;;;;;;;5019991;28;20065;-81
2022/07/31 08:52:14;;;;;;;10.70;4.03;;;;;;;;;;5018228;28;20037;-78
2022/07/31 08:54:42;;;;;;;9.02;3.67;;;;;;;;;;5018329;28;20060;-78
2022/07/31 08:57:09;;;;;;;8.82;4.25;;;;;;;;;;5019420;28;20042;-79
2022/07/31 08:59:36;;;;;;;9.65;4.10;;;;;;;;;;5017020;28;20214;-79
2022/07/31 09:02:03;;;;;;;8.23;3.70;;;;;;;;;;5049692;28;20073;-76
2022/07/31 09:04:30;;;;;;;7.72;3.67;;;;;;;;;;5019806;28;20061;-77
2022/07/31 09:06:59;;;;;;;11.98;3.97;;;;;;;;;;5020700;28;20123;-77
2022/07/31 09:09:28;;;;;;;11.50;3.85;;;;;;;;;;5018590;28;21347;-78
2022/07/31 09:11:55;;;;;;;9.13;3.83;;;;;;;;;;5011514;28;20077;-77
2022/07/31 09:14:35;;;;;;;11.85;3.90;;;;;;;;;;5019952;28;20045;-76
2022/07/31 09:17:03;;;;;;;10.65;4.05;;;;;;;;;;5017883;28;20052;-77
2022/07/31 09:19:42;;;;;;;9.05;3.70;;;;;;;;;;5011080;28;20100;-78
2022/07/31 09:22:23;;;;;;;9.57;4.55;;;;;;;;;;5016763;28;20041;-77
2022/07/31 09:24:49;;;;;;;8.32;3.97;;;;;;;;;;5011022;28;20546;-78
2022/07/31 09:27:16;;;;;;;10.80;4.60;;;;;;;;;;5018780;28;20106;-77
2022/07/31 09:29:44;;;;;;;12.93;4.60;;;;;;;;;;5018230;28;20060;-75
2022/07/31 09:32:13;;;;;;;7.50;3.50;;;;;;;;;;5019303;28;20058;-78
2022/07/31 09:34:40;;;;;;;10.70;3.60;;;;;;;;;;5052602;28;20884;-79
2022/07/31 09:37:17;;;;;;;8.07;3.05;;;;;;;;;;5020338;28;20055;-76
2022/07/31 09:39:54;;;;;;;8.70;3.00;;;;;;;;;;5019048;28;20057;-76
2022/07/31 09:42:22;;;;;;;6.15;2.70;;;;;;;;;;5017015;28;20046;-73
2022/07/31 09:44:50;;;;;;;7.95;2.85;;;;;;;;;;5017869;28;20073;-76
2022/07/31 09:47:21;;;;;;;11.63;3.00;;;;;;;;;;5013334;28;20702;-76
2022/07/31 09:50:01;;;;;;;9.98;3.03;;;;;;;;;;5015128;28;20053;-78
2022/07/31 09:52:29;;;;;;;9.85;2.85;;;;;;;;;;5015473;28;20049;-73
2022/07/31 09:55:00;;;;;;;10.23;2.60;;;;;;;;;;5017675;28;20081;-74
2022/07/31 09:57:26;;;;;;;6.07;2.55;;;;;;;;;;5016084;28;20049;-74
2022/07/31 09:59:52;;;;;;;9.50;3.00;;;;;;;;;;5014258;28;20454;-74
2022/07/31 10:02:19;;;;;;;8.35;2.70;;;;;;;;;;5016547;28;20060;-77
2022/07/31 10:04:47;;;;;;;8.23;2.50;;;;;;;;;;5016590;28;20065;-74
2022/07/31 10:07:15;;;;;;;9.00;2.83;;;;;;;;;;5013992;28;20070;-74
2022/07/31 10:09:42;;;;;;;9.02;3.00;;;;;;;;;;5015788;28;20434;-76
2022/07/31 10:12:13;;;;;;;9.98;2.80;;;;;;;;;;5018746;28;20051;-74
2022/07/31 10:14:43;;;;;;;10.52;2.90;;;;;;;;;;5016803;28;20053;-72
2022/07/31 10:17:10;;;;;;;7.22;3.17;;;;;;;;;;5015050;28;20049;-78
2022/07/31 10:19:38;;;;;;;8.43;2.63;;;;;;;;;;5016789;28;20120;-77
2022/07/31 10:22:05;;;;;;;8.00;2.83;;;;;;;;;;5017355;28;20056;-81
2022/07/31 10:24:32;;;;;;;9.43;2.67;;;;;;;;;;5023487;28;20050;-77
2022/07/31 10:26:59;;;;;;;12.25;2.88;;;;;;;;;;5017849;28;20099;-76
2022/07/31 10:29:26;;;;;;;10.52;2.88;;;;;;;;;;5015830;28;20124;-77
2022/07/31 10:31:52;;;;;;;7.65;2.60;;;;;;;;;;5016049;28;20042;-73
2022/07/31 10:34:19;;;;;;;6.07;2.63;;;;;;;;;;5015046;28;20038;-72
2022/07/31 10:36:48;;;;;;;7.13;2.58;;;;;;;;;;5019164;28;20568;-72
2022/07/31 10:39:27;;;;;;;6.75;2.60;;;;;;;;;;5019953;28;20053;-73
2022/07/31 10:42:05;;;;;;;8.10;2.65;;;;;;;;;;5016004;28;20063;-73
2022/07/31 10:44:44;;;;;;;10.70;3.08;;;;;;;;;;5020045;28;20049;-76
2022/07/31 10:47:17;;;;;;;6.90;2.50;;;;;;;;;;5017387;28;20803;-73
2022/07/31 10:49:45;;;;;;;9.00;2.88;;;;;;;;;;5010820;28;20041;-71
2022/07/31 10:52:11;;;;;;;8.85;2.85;;;;;;;;;;5016465;28;20137;-75
2022/07/31 10:54:45;;;;;;;8.35;2.88;;;;;;;;;;5019578;28;20128;-72
2022/07/31 10:57:22;;;;;;;5.82;2.78;;;;;;;;;;5016672;28;20081;-73
2022/07/31 10:59:48;;;;;;;7.43;2.83;;;;;;;;;;5017106;28;20037;-73
2022/07/31 11:02:28;;;;;;;11.40;3.10;;;;;;;;;;5016133;28;20042;-74
2022/07/31 11:05:08;;;;;;;9.57;2.75;;;;;;;;;;5016437;28;20174;-70
2022/07/31 11:07:34;;;;;;;6.85;2.90;;;;;;;;;;5018470;28;20057;-72
2022/07/31 11:10:11;;;;;;;6.30;2.67;;;;;;;;;;5019588;28;20874;-73
2022/07/31 11:12:38;;;;;;;9.23;2.75;;;;;;;;;;5019678;28;20052;-73
2022/07/31 11:15:25;;;;;;;11.02;3.13;;;;;;;;;;5019819;28;20059;-73
2022/07/31 11:17:52;;;;;;;11.00;3.42;;;;;;;;;;5015024;28;20054;-73
2022/07/31 11:20:24;;;;;;;11.23;3.20;;;;;;;;;;5015941;28;20541;-74
2022/07/31 11:23:05;;;;;;;9.27;2.70;;;;;;;;;;5013880;28;20042;-76
2022/07/31 11:25:34;;;;;;;7.88;2.65;;;;;;;;;;5019919;28;20655;-75
2022/07/31 11:28:14;;;;;;;9.10;2.92;;;;;;;;;;5018520;28;20050;-74
2022/07/31 11:31:00;;;;;;;7.15;2.88;;;;;;;;;;5018625;28;20125;-74
2022/07/31 11:33:37;;;;;;;6.43;2.88;;;;;;;;;;5017882;28;20081;-75
2022/07/31 11:36:09;;;;;;;7.43;3.00;;;;;;;;;;5014593;28;20057;-74
2022/07/31 11:38:35;;;;;;;7.75;2.88;;;;;;;;;;5020405;28;20050;-75
2022/07/31 11:41:02;;;;;;;9.40;2.95;;;;;;;;;;5022890;28;20372;-73
2022/07/31 11:43:29;;;;;;;8.10;3.00;;;;;;;;;;5019773;28;20069;-73
2022/07/31 11:45:56;;;;;;;6.13;2.70;;;;;;;;;;5018859;28;20054;-73
2022/07/31 11:48:23;;;;;;;10.77;3.10;;;;;;;;;;5015477;28;20458;-75
2022/07/31 11:50:49;;;;;;;9.48;2.95;;;;;;;;;;5019656;28;20634;-75
2022/07/31 11:53:17;;;;;;;7.05;2.60;;;;;;;;;;5017099;28;20045;-74
2022/07/31 11:55:53;;;;;;;8.38;2.92;;;;;;;;;;5017796;28;20056;-72
2022/07/31 11:58:20;;;;;;;6.90;2.60;;;;;;;;;;5013343;28;20046;-74
2022/07/31 12:00:48;;;;;;;9.13;3.10;;;;;;;;;;5011771;28;20046;-75
2022/07/31 12:03:16;;;;;;;9.30;2.70;;;;;;;;;;5011499;28;20260;-72
2022/07/31 12:05:46;;;;;;;9.10;2.78;;;;;;;;;;5011358;28;20068;-74
2022/07/31 12:08:14;;;;;;;6.28;2.40;;;;;;;;;;5010870;28;20053;-78
2022/07/31 12:10:40;;;;;;;4.35;2.47;;;;;;;;;;5010824;28;20049;-74
2022/07/31 12:13:17;;;;;;;8.85;2.72;;;;;;;;;;5013695;28;20053;-74
2022/07/31 12:15:57;;;;;;;5.63;2.40;;;;;;;;;;5009786;28;20131;-75
2022/07/31 12:18:24;;;;;;;11.85;2.60;;;;;;;;;;5010171;28;20056;-74
2022/07/31 12:20:58;;;;;;;7.15;2.70;;;;;;;;;;5009118;28;20053;-75
2022/07/31 12:23:25;;;;;;;8.77;2.55;;;;;;;;;;5009394;28;20761;-70
2022/07/31 12:25:51;;;;;;;6.85;2.42;;;;;;;;;;5010350;28;20042;-74
2022/07/31 12:28:17;;;;;;;12.38;2.70;;;;;;;;;;5008467;28;20795;-71
2022/07/31 12:30:44;;;;;;;5.88;2.67;;;;;;;;;;5008813;28;20059;-73
2022/07/31 12:33:12;;;;;;;7.88;2.65;;;;;;;;;;5009563;28;20086;-69
2022/07/31 12:35:40;;;;;;;6.45;2.10;;;;;;;;;;5011636;28;20148;-78
2022/07/31 12:38:06;;;;;;;7.88;2.40;;;;;;;;;;5010487;28;20053;-77
2022/07/31 12:40:33;;;;;;;9.68;3.13;;;;;;;;;;5009985;28;20045;-72
2022/07/31 12:42:59;;;;;;;5.00;2.30;;;;;;;;;;5011804;28;20077;-74
2022/07/31 12:45:36;;;;;;;8.25;2.90;;;;;;;;;;5012433;28;20060;-76
2022/07/31 12:48:03;;;;;;;7.22;2.33;;;;;;;;;;5016779;28;20065;-77
2022/07/31 12:50:31;;;;;;;5.53;2.13;;;;;;;;;;5015551;28;20160;-81
2022/07/31 12:53:00;;;;;;;7.88;2.33;;;;;;;;;;5015275;28;20049;-76
2022/07/31 12:55:27;;;;;;;8.43;2.17;;;;;;;;;;5014858;28;20054;-75
2022/07/31 12:57:54;;;;;;;7.63;2.45;;;;;;;;;;5014560;28;20053;-79
2022/07/31 13:00:22;;;;;;;8.23;2.72;;;;;;;;;;5017667;28;20573;-78
2022/07/31 13:02:49;;;;;;;11.63;2.72;;;;;;;;;;5017389;28;20060;-76
2022/07/31 13:05:15;;;;;;;9.63;2.53;;;;;;;;;;5012474;28;20060;-75
2022/07/31 13:07:41;;;;;;;8.05;2.55;;;;;;;;;;5010633;28;20056;-77
2022/07/31 13:10:07;;;;;;;6.03;2.58;;;;;;;;;;5013321;28;20499;-78
2022/07/31 13:12:33;;;;;;;9.00;2.30;;;;;;;;;;5016571;28;20484;-80
2022/07/31 13:15:00;;;;;;;10.18;2.75;;;;;;;;;;5013048;28;20046;-75
2022/07/31 13:17:27;;;;;;;9.15;2.42;;;;;;;;;;5010038;28;20057;-76
2022/07/31 13:19:53;;;;;;;7.10;2.40;;;;;;;;;;5011992;28;20169;-75
2022/07/31 13:22:19;;;;;;;7.03;2.28;;;;;;;;;;5012670;28;20045;-74
2022/07/31 13:24:45;;;;;;;5.97;2.58;;;;;;;;;;5011771;28;20093;-75
2022/07/31 13:27:11;;;;;;;5.63;2.35;;;;;;;;;;5013789;28;20060;-73
2022/07/31 13:29:36;;;;;;;8.10;2.47;;;;;;;;;;5016025;28;20052;-79
2022/07/31 13:32:02;;;;;;;11.23;2.55;;;;;;;;;;5013620;28;20107;-74
2022/07/31 13:34:28;;;;;;;5.95;2.22;;;;;;;;;;5013760;28;20057;-74
2022/07/31 13:36:55;;;;;;;7.85;2.55;;;;;;;;;;5031014;28;20163;-80
2022/07/31 13:39:21;;;;;;;6.55;2.25;;;;;;;;;;5030023;28;20105;-76
2022/07/31 13:41:47;;;;;;;8.50;2.30;;;;;;;;;;5016756;28;20049;-75
2022/07/31 13:44:13;;;;;;;6.80;2.55;;;;;;;;;;5017736;28;20053;-77
2022/07/31 13:46:39;;;;;;;11.50;2.40;;;;;;;;;;5018671;28;20069;-74
2022/07/31 13:49:07;;;;;;;5.20;2.20;;;;;;;;;;5017269;28;20470;-77
2022/07/31 13:51:33;;;;;;;9.27;2.40;;;;;;;;;;5016517;28;20041;-75
2022/07/31 13:53:59;;;;;;;14.18;2.70;;;;;;;;;;5016820;28;20053;-78
2022/07/31 13:56:25;;;;;;;7.68;1.90;;;;;;;;;;5015596;28;20046;-74
2022/07/31 13:58:54;;;;;;;7.68;2.30;;;;;;;;;;5012457;28;20049;-75
2022/07/31 14:01:20;;;;;;;8.07;2.10;;;;;;;;;;5013479;28;20049;-75
2022/07/31 14:03:46;;;;;;;9.13;2.50;;;;;;;;;;5012798;28;20116;-73
2022/07/31 14:06:12;;;;;;;9.70;2.30;;;;;;;;;;5015563;28;20573;-78
2022/07/31 14:08:38;;;;;;;6.47;2.50;;;;;;;;;;5013336;28;20049;-72
2022/07/31 14:11:04;;;;;;;8.68;2.35;;;;;;;;;;5014397;28;20052;-75
2022/07/31 14:13:30;;;;;;;6.72;2.40;;;;;;;;;;5016292;28;20510;-72
2022/07/31 14:15:55;;;;;;;7.45;2.38;;;;;;;;;;5019921;28;20918;-78
2022/07/31 14:18:24;;;;;;;6.28;2.25;;;;;;;;;;5014314;28;20050;-76
2022/07/31 14:20:50;;;;;;;9.23;2.50;;;;;;;;;;5017493;28;20049;-77
2022/07/31 14:23:16;;;;;;;7.38;2.35;;;;;;;;;;5019353;28;20038;-76
2022/07/31 14:25:42;;;;;;;6.35;2.20;;;;;;;;;;5021511;28;20107;-77
2022/07/31 14:28:09;;;;;;;9.45;2.40;;;;;;;;;;5026279;28;20057;-77
2022/07/31 14:30:36;;;;;;;6.35;2.20;;;;;;;;;;5020212;28;20136;-78
2022/07/31 14:33:03;;;;;;;8.80;2.05;;;;;;;;;;5034605;28;20079;-81
2022/07/31 14:35:32;;;;;;;10.48;2.50;;;;;;;;;;5201076;23;20579;-79
2022/07/31 14:37:58;;;;;;;6.82;2.30;;;;;;;;;;5013808;28;20628;-81
2022/07/31 14:40:26;;;;;;;10.68;2.40;;;;;;;;;;5004065;28;20050;-79
2022/07/31 14:42:52;;;;;;;8.38;2.00;;;;;;;;;;5000075;28;20053;-79